Time;durP1;ratioP1;P1;durP2;ratioP2;P2;SDS_P1;SDS_P2;PMS_P1;PMS_P2;Temp;Humidity;BMP_temperature;BMP_pressure;BME280_temperature;BME280_humidity;BME280_pressure;Samples;Min_cycle;Max_cycle;Signal;HPM_P1;HPM_P2
2021/05/06 00:07:38;;;;;;;;;;;18.70;43.90;;;;;;5024925;28;75660;-72
2021/05/06 00:34:35;;;;;;;;;;;18.40;45.30;;;;;;5031161;28;76218;-66
2021/05/06 00:37:00;;;;;;;;;;;18.30;45.50;;;;;;5032345;28;74582;-66
2021/05/06 00:39:43;;;;;;;;;;;18.30;45.80;;;;;;5040035;27;75181;-67
2021/05/06 01:05:57;;;;;;;;;;;17.70;46.90;;;;;;5051236;28;74402;-68
2021/05/06 01:08:26;;;;;;;;;;;17.70;46.80;;;;;;5052122;28;74648;-69
2021/05/06 01:13:25;;;;;;;;;;;17.60;47.00;;;;;;5051068;28;75038;-70
2021/05/06 01:15:51;;;;;;;;;;;17.60;47.00;;;;;;5053402;28;75165;-70
2021/05/06 01:18:17;;;;;;;;;;;17.50;46.90;;;;;;5053578;27;75408;-74
2021/05/06 01:20:47;;;;;;;;;;;17.50;47.10;;;;;;5051886;28;77588;-75
2021/05/06 01:23:13;;;;;;;;;;;17.50;47.10;;;;;;5052137;28;76460;-73
2021/05/06 01:25:43;;;;;;;;;;;17.40;47.20;;;;;;5053731;28;75192;-71
2021/05/06 01:28:12;;;;;;;;;;;17.40;47.40;;;;;;5052053;28;77403;-68
2021/05/06 01:30:47;;;;;;;;;;;17.40;47.50;;;;;;5051929;28;76484;-70
2021/05/06 01:33:38;;;;;;;;;;;17.40;47.50;;;;;;5053573;28;75089;-70
2021/05/06 01:36:03;;;;;;;;;;;17.30;48.00;;;;;;5053057;27;75644;-76
2021/05/06 01:38:54;;;;;;;;;;;17.30;47.90;;;;;;5052943;28;75142;-76
2021/05/06 01:41:42;;;;;;;;;;;17.20;48.10;;;;;;5051832;28;75212;-72
2021/05/06 01:47:07;;;;;;;;;;;17.10;48.50;;;;;;5050246;28;75158;-76
2021/05/06 01:57:46;;;;;;;;;;;16.90;49.10;;;;;;5053903;28;74827;-68
2021/05/06 02:00:17;;;;;;;;;;;16.90;49.40;;;;;;5051266;28;77280;-78
2021/05/06 02:02:43;;;;;;;;;;;16.80;49.40;;;;;;5051362;28;77892;-75
2021/05/06 02:05:09;;;;;;;;;;;16.70;49.90;;;;;;5053006;28;75471;-71
2021/05/06 02:07:38;;;;;;;;;;;16.60;49.80;;;;;;5050975;28;75507;-78
2021/05/06 02:10:07;;;;;;;;;;;16.50;49.80;;;;;;5051235;28;77245;-80
2021/05/06 02:12:33;;;;;;;;;;;16.50;49.90;;;;;;5050937;28;76306;-72
2021/05/06 02:15:10;;;;;;;;;;;16.50;50.00;;;;;;5052939;28;75248;-75
2021/05/06 02:17:36;;;;;;;;;;;16.50;50.00;;;;;;5051397;28;74652;-74
2021/05/06 02:20:02;;;;;;;;;;;16.40;49.80;;;;;;5052818;28;75535;-69
2021/05/06 02:22:28;;;;;;;;;;;16.40;50.10;;;;;;5050993;28;77831;-72
2021/05/06 02:24:54;;;;;;;;;;;16.30;50.10;;;;;;5052767;28;74916;-78
2021/05/06 02:27:20;;;;;;;;;;;16.30;50.10;;;;;;5052943;28;75720;-79
2021/05/06 02:29:46;;;;;;;;;;;16.20;50.40;;;;;;5051151;28;77717;-80
2021/05/06 02:32:12;;;;;;;;;;;16.10;50.60;;;;;;5052828;28;75164;-75
2021/05/06 02:34:37;;;;;;;;;;;16.10;50.50;;;;;;5052474;28;75031;-75
2021/05/06 02:37:03;;;;;;;;;;;16.00;50.90;;;;;;5052648;28;76087;-80
2021/05/06 02:39:29;;;;;;;;;;;16.00;50.60;;;;;;5052644;28;74499;-76
2021/05/06 02:41:54;;;;;;;;;;;16.00;51.00;;;;;;5050784;28;75733;-73
2021/05/06 02:44:20;;;;;;;;;;;16.00;51.00;;;;;;5050818;28;77438;-69
2021/05/06 02:46:46;;;;;;;;;;;16.00;50.90;;;;;;5050634;28;76417;-73
2021/05/06 02:49:11;;;;;;;;;;;16.00;51.20;;;;;;5050834;28;75475;-75
2021/05/06 02:51:50;;;;;;;;;;;15.90;51.50;;;;;;5050467;28;75145;-79
2021/05/06 02:54:16;;;;;;;;;;;16.00;51.40;;;;;;5052236;28;75232;-71
2021/05/06 02:56:55;;;;;;;;;;;16.00;51.40;;;;;;5085408;27;78689;-70
2021/05/06 03:04:30;;;;;;;;;;;15.80;51.90;;;;;;5055737;28;74925;-69
2021/05/06 03:07:02;;;;;;;;;;;15.70;52.10;;;;;;5053963;28;76953;-67
2021/05/06 03:09:47;;;;;;;;;;;15.70;52.30;;;;;;5053752;28;77687;-67
2021/05/06 03:22:51;;;;;;;;;;;15.60;52.80;;;;;;5056197;28;74481;-70
2021/05/06 03:25:18;;;;;;;;;;;15.60;52.70;;;;;;5055480;28;74962;-66
2021/05/06 03:28:00;;;;;;;;;;;15.50;53.00;;;;;;5053770;28;76541;-67
2021/05/06 03:44:15;;;;;;;;;;;15.40;53.20;;;;;;5055626;28;74888;-67
2021/05/06 04:37:34;;;;;;;;;;;14.60;55.20;;;;;;5055006;28;74933;-69
2021/05/06 04:40:32;;;;;;;;;;;14.60;55.40;;;;;;5052764;28;76294;-70
2021/05/06 04:43:52;;;;;;;;;;;14.60;55.40;;;;;;5054465;27;75197;-72
2021/05/06 05:11:57;;;;;;;;;;;14.20;56.50;;;;;;5050694;28;75172;-72
2021/05/06 05:27:23;;;;;;;;;;;14.00;57.00;;;;;;5051401;28;74510;-70
2021/05/06 05:29:50;;;;;;;;;;;14.00;56.90;;;;;;5053514;28;75274;-73
2021/05/06 05:32:17;;;;;;;;;;;14.00;56.90;;;;;;5051739;28;75884;-71
2021/05/06 05:34:52;;;;;;;;;;;14.00;57.00;;;;;;5051872;28;75199;-72
2021/05/06 05:37:20;;;;;;;;;;;14.00;56.80;;;;;;5044616;28;75592;-65
2021/05/06 05:42:31;;;;;;;;;;;13.90;57.00;;;;;;5046052;27;75166;-64
2021/05/06 05:55:52;;;;;;;;;;;14.00;56.80;;;;;;5050228;28;74707;-66
2021/05/06 05:58:18;;;;;;;;;;;14.00;56.90;;;;;;5048835;28;77242;-65
2021/05/06 06:00:44;;;;;;;;;;;14.10;56.60;;;;;;5050442;28;75624;-65
2021/05/06 06:03:09;;;;;;;;;;;14.20;56.40;;;;;;5048897;28;75735;-64
2021/05/06 06:05:35;;;;;;;;;;;14.10;56.30;;;;;;5049268;27;75712;-64
2021/05/06 06:08:01;;;;;;;;;;;14.10;56.60;;;;;;5048243;28;77350;-65
2021/05/06 06:10:26;;;;;;;;;;;14.10;56.30;;;;;;5048378;28;77362;-64
2021/05/06 06:12:52;;;;;;;;;;;14.20;56.20;;;;;;5050081;28;75113;-65
2021/05/06 06:17:47;;;;;;;;;;;14.30;56.00;;;;;;5047424;28;74542;-66
2021/05/06 06:20:13;;;;;;;;;;;14.40;55.70;;;;;;5049428;27;75213;-65
2021/05/06 06:22:39;;;;;;;;;;;14.40;55.70;;;;;;5049084;28;77260;-65
2021/05/06 06:25:05;;;;;;;;;;;14.50;55.60;;;;;;5048018;28;75581;-65
2021/05/06 06:27:31;;;;;;;;;;;14.60;55.50;;;;;;5048159;28;75653;-66
2021/05/06 06:29:56;;;;;;;;;;;14.60;55.40;;;;;;5048695;28;77251;-66
2021/05/06 06:32:22;;;;;;;;;;;14.70;55.40;;;;;;5048698;28;75870;-65
2021/05/06 06:34:48;;;;;;;;;;;14.80;55.50;;;;;;5047876;28;76386;-64
2021/05/06 06:37:14;;;;;;;;;;;14.90;55.10;;;;;;5045456;28;75696;-64
2021/05/06 06:39:40;;;;;;;;;;;14.90;55.00;;;;;;5047818;28;75422;-64
2021/05/06 06:42:07;;;;;;;;;;;15.00;54.80;;;;;;5048145;28;78065;-64
2021/05/06 06:44:34;;;;;;;;;;;15.10;54.70;;;;;;5050361;28;75045;-64
2021/05/06 06:47:04;;;;;;;;;;;15.20;54.70;;;;;;5047211;28;77346;-65
2021/05/06 06:49:33;;;;;;;;;;;15.30;54.60;;;;;;5047069;28;75269;-64
2021/05/06 06:51:59;;;;;;;;;;;15.30;54.60;;;;;;5048476;28;78277;-64
2021/05/06 06:54:26;;;;;;;;;;;15.40;54.20;;;;;;5048615;28;75404;-65
2021/05/06 06:56:52;;;;;;;;;;;15.50;54.20;;;;;;5049840;28;75262;-65
2021/05/06 06:59:17;;;;;;;;;;;15.50;54.00;;;;;;5047707;28;77407;-64
2021/05/06 07:01:43;;;;;;;;;;;15.50;54.20;;;;;;5049347;28;75080;-63
2021/05/06 07:04:10;;;;;;;;;;;15.60;53.90;;;;;;5047108;27;76189;-65
2021/05/06 07:06:35;;;;;;;;;;;15.70;53.90;;;;;;5045802;28;75803;-65
2021/05/06 07:09:01;;;;;;;;;;;15.90;53.90;;;;;;5048717;27;75456;-66
2021/05/06 07:11:27;;;;;;;;;;;15.90;53.50;;;;;;5047827;28;75342;-66
2021/05/06 07:13:52;;;;;;;;;;;16.00;53.20;;;;;;5046920;27;76284;-66
2021/05/06 07:16:18;;;;;;;;;;;16.20;53.00;;;;;;5044802;28;76548;-65
2021/05/06 07:18:43;;;;;;;;;;;16.20;52.80;;;;;;5046663;28;78262;-66
2021/05/06 07:21:09;;;;;;;;;;;16.40;53.10;;;;;;5047410;28;77415;-66
2021/05/06 07:23:35;;;;;;;;;;;16.40;52.70;;;;;;5046088;28;74851;-65
2021/05/06 07:26:01;;;;;;;;;;;16.50;52.60;;;;;;5046925;28;77694;-66
2021/05/06 07:28:40;;;;;;;;;;;16.60;52.20;;;;;;5046686;28;77512;-65
2021/05/06 07:31:06;;;;;;;;;;;16.70;51.80;;;;;;5049460;28;75739;-66
2021/05/06 07:33:32;;;;;;;;;;;16.80;51.90;;;;;;5047747;28;77066;-66
2021/05/06 07:35:58;;;;;;;;;;;16.90;51.80;;;;;;5046323;28;77274;-66
2021/05/06 07:38:24;;;;;;;;;;;17.00;51.50;;;;;;5049048;28;75081;-66
2021/05/06 07:40:50;;;;;;;;;;;17.00;51.10;;;;;;5047609;28;77471;-66
2021/05/06 07:43:16;;;;;;;;;;;17.10;51.10;;;;;;5047071;28;75673;-66
2021/05/06 07:45:42;;;;;;;;;;;17.10;51.10;;;;;;5048802;27;75272;-66
2021/05/06 07:48:07;;;;;;;;;;;17.20;51.20;;;;;;5049577;27;75757;-66
2021/05/06 07:50:33;;;;;;;;;;;17.30;50.90;;;;;;5051877;27;75948;-66
2021/05/06 07:53:08;;;;;;;;;;;17.40;50.80;;;;;;5052610;27;75258;-66
2021/05/06 07:55:34;;;;;;;;;;;17.40;50.60;;;;;;5049649;28;76155;-67
2021/05/06 07:58:00;;;;;;;;;;;17.60;50.60;;;;;;5050268;28;77505;-66
2021/05/06 08:00:26;;;;;;;;;;;17.70;50.20;;;;;;5050916;28;78445;-66
2021/05/06 08:02:52;;;;;;;;;;;17.80;49.80;;;;;;5050229;28;77132;-65
2021/05/06 08:05:18;;;;;;;;;;;17.90;49.80;;;;;;5051942;28;75150;-66
2021/05/06 08:07:43;;;;;;;;;;;17.90;49.80;;;;;;5048500;28;74684;-66
2021/05/06 08:10:13;;;;;;;;;;;18.00;49.70;;;;;;5049011;28;75157;-68
2021/05/06 08:12:39;;;;;;;;;;;18.20;49.20;;;;;;5050718;28;77157;-68
2021/05/06 08:15:07;;;;;;;;;;;18.30;48.80;;;;;;5052145;27;74554;-67
2021/05/06 08:17:37;;;;;;;;;;;18.40;48.70;;;;;;5050093;28;77387;-68
2021/05/06 08:20:04;;;;;;;;;;;18.50;48.60;;;;;;5052071;28;75131;-67
2021/05/06 08:22:30;;;;;;;;;;;18.60;48.20;;;;;;5050450;28;77470;-64
2021/05/06 08:24:56;;;;;;;;;;;18.70;47.90;;;;;;5050065;28;76993;-65
2021/05/06 08:27:21;;;;;;;;;;;18.90;47.70;;;;;;5051893;28;76054;-64
2021/05/06 08:29:47;;;;;;;;;;;18.90;47.40;;;;;;5049974;28;76815;-64
2021/05/06 08:32:13;;;;;;;;;;;19.00;47.20;;;;;;5051687;28;75711;-65
2021/05/06 08:34:38;;;;;;;;;;;19.10;46.70;;;;;;5050592;28;77130;-64
2021/05/06 08:37:04;;;;;;;;;;;19.10;46.90;;;;;;5049388;28;78216;-65
2021/05/06 08:39:29;;;;;;;;;;;19.20;47.00;;;;;;5050919;28;75702;-70
2021/05/06 08:41:55;;;;;;;;;;;19.30;46.90;;;;;;5050269;28;78205;-69
2021/05/06 08:44:25;;;;;;;;;;;19.40;46.70;;;;;;5049870;28;77254;-66
2021/05/06 08:47:07;;;;;;;;;;;19.50;46.70;;;;;;5050152;28;76747;-67
2021/05/06 08:49:34;;;;;;;;;;;19.50;47.00;;;;;;5049663;28;75725;-68
2021/05/06 08:52:01;;;;;;;;;;;19.40;46.80;;;;;;5049791;28;76432;-68
2021/05/06 08:54:27;;;;;;;;;;;19.40;47.10;;;;;;5050873;27;75613;-68
2021/05/06 08:56:53;;;;;;;;;;;19.60;47.00;;;;;;5047794;28;74676;-68
2021/05/06 08:59:19;;;;;;;;;;;19.60;46.40;;;;;;5049992;28;74954;-67
2021/05/06 09:01:44;;;;;;;;;;;19.60;46.30;;;;;;5051130;27;75988;-67
2021/05/06 09:04:10;;;;;;;;;;;19.70;46.60;;;;;;5049049;28;76473;-68
2021/05/06 09:06:50;;;;;;;;;;;19.80;46.30;;;;;;5049508;28;77035;-68
2021/05/06 09:09:19;;;;;;;;;;;19.90;45.90;;;;;;5049302;28;76804;-68
2021/05/06 09:11:49;;;;;;;;;;;20.00;45.50;;;;;;5048751;28;75187;-68
2021/05/06 09:14:15;;;;;;;;;;;20.10;45.10;;;;;;5049959;28;77163;-67
2021/05/06 09:16:43;;;;;;;;;;;20.10;45.20;;;;;;5048148;28;95178;-67
2021/05/06 09:19:12;;;;;;;;;;;20.30;45.10;;;;;;5049534;28;74765;-68
2021/05/06 09:21:39;;;;;;;;;;;20.40;44.70;;;;;;5051296;28;74943;-68
2021/05/06 09:24:09;;;;;;;;;;;20.40;44.60;;;;;;5050551;28;75526;-68
2021/05/06 09:26:37;;;;;;;;;;;20.60;44.90;;;;;;5049377;28;76908;-68
2021/05/06 09:29:04;;;;;;;;;;;20.70;44.10;;;;;;5049648;28;76419;-68
2021/05/06 09:31:33;;;;;;;;;;;20.80;43.60;;;;;;5048062;28;76013;-68
2021/05/06 09:33:58;;;;;;;;;;;20.90;43.80;;;;;;5050684;27;75417;-69
2021/05/06 09:36:24;;;;;;;;;;;21.00;43.10;;;;;;5049022;28;77751;-69
2021/05/06 09:38:51;;;;;;;;;;;21.00;43.60;;;;;;5048237;28;76949;-69
2021/05/06 09:41:18;;;;;;;;;;;21.10;43.40;;;;;;5048743;28;77309;-69
2021/05/06 09:43:44;;;;;;;;;;;21.20;43.40;;;;;;5048178;27;75215;-69
2021/05/06 09:46:29;;;;;;;;;;;21.40;43.60;;;;;;5047226;28;75282;-69
2021/05/06 09:48:56;;;;;;;;;;;21.50;42.50;;;;;;5047089;28;75415;-69
2021/05/06 09:51:51;;;;;;;;;;;21.60;42.70;;;;;;5046475;28;76158;-69
2021/05/06 09:54:27;;;;;;;;;;;21.60;42.40;;;;;;5038705;27;75327;-69
2021/05/06 09:57:03;;;;;;;;;;;21.90;42.80;;;;;;5045957;28;78704;-68
2021/05/06 09:59:29;;;;;;;;;;;22.10;42.00;;;;;;5049368;28;75631;-68
2021/05/06 10:02:17;;;;;;;;;;;22.40;40.80;;;;;;5049608;28;75988;-67
2021/05/06 10:04:44;;;;;;;;;;;22.50;41.00;;;;;;5049525;28;77838;-68
2021/05/06 10:07:09;;;;;;;;;;;22.70;40.70;;;;;;5047770;28;77675;-68
2021/05/06 10:09:52;;;;;;;;;;;22.90;40.10;;;;;;5049787;28;75860;-68
2021/05/06 10:12:18;;;;;;;;;;;23.10;39.00;;;;;;5047730;27;75953;-68
2021/05/06 10:14:45;;;;;;;;;;;23.40;39.90;;;;;;5048455;28;76327;-68
2021/05/06 10:17:12;;;;;;;;;;;23.60;39.60;;;;;;5050304;28;75620;-68
2021/05/06 10:19:39;;;;;;;;;;;23.90;38.30;;;;;;5047884;28;78347;-68
2021/05/06 10:22:06;;;;;;;;;;;24.00;37.70;;;;;;5046954;28;76759;-68
2021/05/06 10:24:32;;;;;;;;;;;24.20;37.10;;;;;;5047665;28;78125;-68
2021/05/06 10:26:57;;;;;;;;;;;24.40;36.10;;;;;;5047569;28;78565;-68
2021/05/06 10:29:23;;;;;;;;;;;24.50;36.30;;;;;;5049037;28;75677;-68
2021/05/06 10:31:48;;;;;;;;;;;24.70;36.20;;;;;;5049455;27;75507;-68
2021/05/06 10:34:15;;;;;;;;;;;24.90;35.50;;;;;;5049985;28;75217;-68
2021/05/06 10:36:41;;;;;;;;;;;25.00;36.10;;;;;;5048102;28;78439;-68
2021/05/06 10:39:11;;;;;;;;;;;25.30;35.80;;;;;;5048686;27;75861;-67
2021/05/06 10:41:36;;;;;;;;;;;25.50;35.70;;;;;;5048238;28;75890;-69
2021/05/06 10:44:06;;;;;;;;;;;25.80;34.70;;;;;;5048460;28;77834;-68
2021/05/06 10:46:44;;;;;;;;;;;26.10;35.00;;;;;;5047380;28;77147;-67
2021/05/06 10:49:09;;;;;;;;;;;26.50;34.90;;;;;;5048049;28;77568;-68
2021/05/06 10:51:35;;;;;;;;;;;26.90;34.00;;;;;;5048302;28;75740;-70
2021/05/06 10:54:20;;;;;;;;;;;27.30;32.30;;;;;;5047797;28;78387;-68
2021/05/06 10:56:46;;;;;;;;;;;27.50;32.20;;;;;;5047979;28;78067;-67
2021/05/06 10:59:25;;;;;;;;;;;27.90;32.20;;;;;;5047500;28;76235;-68
2021/05/06 11:01:51;;;;;;;;;;;28.20;31.40;;;;;;5047949;28;75982;-68
2021/05/06 11:04:29;;;;;;;;;;;28.60;30.80;;;;;;5048126;28;76579;-68
2021/05/06 11:07:08;;;;;;;;;;;28.90;30.00;;;;;;5047100;28;75305;-69
2021/05/06 11:09:35;;;;;;;;;;;29.40;29.90;;;;;;5049291;28;76235;-69
2021/05/06 11:12:17;;;;;;;;;;;30.00;29.50;;;;;;5047322;28;75744;-68
2021/05/06 11:15:01;;;;;;;;;;;30.70;29.10;;;;;;5049905;28;75279;-68
2021/05/06 11:17:33;;;;;;;;;;;31.40;26.90;;;;;;5046880;28;76267;-68
2021/05/06 11:19:59;;;;;;;;;;;32.10;26.10;;;;;;5048092;28;77827;-69
2021/05/06 11:22:46;;;;;;;;;;;32.90;24.80;;;;;;5049260;28;75685;-68
2021/05/06 11:27:55;;;;;;;;;;;34.70;22.40;;;;;;5047186;27;75129;-68
2021/05/06 11:30:35;;;;;;;;;;;35.40;22.90;;;;;;5051633;28;75783;-68
2021/05/06 11:33:15;;;;;;;;;;;36.50;21.40;;;;;;5052738;28;75078;-68
2021/05/06 11:36:02;;;;;;;;;;;37.10;20.90;;;;;;5049952;28;77420;-67
2021/05/06 11:38:41;;;;;;;;;;;37.90;20.30;;;;;;5049160;28;75970;-68
2021/05/06 11:41:08;;;;;;;;;;;39.00;18.20;;;;;;5050790;28;75388;-69
2021/05/06 11:43:34;;;;;;;;;;;39.50;16.90;;;;;;5051025;28;79213;-67
2021/05/06 11:46:07;;;;;;;;;;;39.50;18.40;;;;;;5050154;28;75236;-68
2021/05/06 11:48:36;;;;;;;;;;;39.90;18.10;;;;;;5051038;27;76464;-68
2021/05/06 11:51:02;;;;;;;;;;;40.50;17.70;;;;;;5050346;28;78079;-68
2021/05/06 11:53:27;;;;;;;;;;;41.00;17.70;;;;;;5050460;27;78413;-69
2021/05/06 11:55:53;;;;;;;;;;;41.40;17.10;;;;;;5050745;28;75669;-67
2021/05/06 11:58:28;;;;;;;;;;;41.40;16.30;;;;;;5051323;27;75143;-67
2021/05/06 12:00:54;;;;;;;;;;;41.30;17.00;;;;;;5052706;28;75131;-67
2021/05/06 12:03:20;;;;;;;;;;;42.50;17.00;;;;;;5049922;28;75220;-67
2021/05/06 12:05:47;;;;;;;;;;;43.40;16.60;;;;;;5050123;28;78084;-67
2021/05/06 12:08:13;;;;;;;;;;;43.70;16.20;;;;;;5051839;28;75543;-67
2021/05/06 12:10:42;;;;;;;;;;;44.20;15.90;;;;;;5050428;28;75400;-68
2021/05/06 12:13:09;;;;;;;;;;;45.00;15.10;;;;;;5052143;28;75900;-67
2021/05/06 12:15:34;;;;;;;;;;;44.60;15.20;;;;;;5051471;28;74708;-68
2021/05/06 12:18:20;;;;;;;;;;;44.20;14.70;;;;;;5049848;28;77677;-67
2021/05/06 12:20:52;;;;;;;;;;;43.80;14.60;;;;;;5050241;28;75361;-68
2021/05/06 12:23:18;;;;;;;;;;;44.20;14.60;;;;;;5050123;28;77004;-67
2021/05/06 12:25:44;;;;;;;;;;;43.90;15.30;;;;;;5051318;27;76169;-67
2021/05/06 12:28:09;;;;;;;;;;;44.50;15.10;;;;;;5046791;28;75515;-67
2021/05/06 12:30:35;;;;;;;;;;;44.80;14.50;;;;;;5052712;28;76023;-68
2021/05/06 12:33:00;;;;;;;;;;;45.70;14.30;;;;;;5052784;28;76098;-68
2021/05/06 12:35:26;;;;;;;;;;;46.60;14.50;;;;;;5053392;27;75218;-68
2021/05/06 12:37:53;;;;;;;;;;;46.80;13.60;;;;;;5054520;28;74508;-68
2021/05/06 12:40:19;;;;;;;;;;;47.00;14.20;;;;;;5052876;28;74719;-69
2021/05/06 12:42:44;;;;;;;;;;;48.10;13.30;;;;;;5052848;28;78478;-68
2021/05/06 12:45:13;;;;;;;;;;;48.00;13.30;;;;;;5054516;28;75651;-68
2021/05/06 12:47:45;;;;;;;;;;;47.60;14.00;;;;;;5054794;28;74461;-68
2021/05/06 12:50:14;;;;;;;;;;;48.00;13.60;;;;;;5052728;28;75277;-69
2021/05/06 12:52:44;;;;;;;;;;;48.90;13.00;;;;;;5054665;28;74450;-69
2021/05/06 12:55:20;;;;;;;;;;;49.00;13.00;;;;;;5051908;28;77266;-68
2021/05/06 12:58:02;;;;;;;;;;;49.70;12.30;;;;;;5052919;28;78264;-68
2021/05/06 13:00:27;;;;;;;;;;;49.20;12.40;;;;;;5052404;28;76946;-68
2021/05/06 13:03:00;;;;;;;;;;;48.20;11.70;;;;;;5052412;28;75400;-68
2021/05/06 13:05:33;;;;;;;;;;;47.50;13.20;;;;;;5052212;27;78079;-68
2021/05/06 13:07:59;;;;;;;;;;;47.50;13.10;;;;;;5054054;28;75188;-68
2021/05/06 13:10:30;;;;;;;;;;;47.80;12.60;;;;;;5047273;27;76206;-69
2021/05/06 13:12:56;;;;;;;;;;;48.60;12.90;;;;;;5038280;28;77882;-70
2021/05/06 13:15:22;;;;;;;;;;;49.80;12.80;;;;;;5032108;28;77091;-69
2021/05/06 13:17:48;;;;;;;;;;;50.90;11.50;;;;;;5033748;28;75221;-70
2021/05/06 13:20:19;;;;;;;;;;;51.20;11.80;;;;;;5048848;28;78053;-70
2021/05/06 13:23:03;;;;;;;;;;;50.80;11.30;;;;;;5033755;28;74985;-68
2021/05/06 13:25:42;;;;;;;;;;;50.60;11.90;;;;;;5033304;28;75531;-70
2021/05/06 13:28:08;;;;;;;;;;;50.80;11.50;;;;;;5049481;28;75567;-68
2021/05/06 13:30:34;;;;;;;;;;;51.00;11.70;;;;;;5033265;28;75099;-69
2021/05/06 13:33:10;;;;;;;;;;;51.60;11.70;;;;;;5033388;28;75032;-68
2021/05/06 13:35:36;;;;;;;;;;;52.20;11.00;;;;;;5031362;28;77512;-69
2021/05/06 13:38:01;;;;;;;;;;;52.10;11.20;;;;;;5034176;27;76590;-69
2021/05/06 13:40:27;;;;;;;;;;;51.60;11.60;;;;;;5044660;28;74545;-71
2021/05/06 13:42:52;;;;;;;;;;;51.60;12.40;;;;;;5051958;28;75365;-71
2021/05/06 13:45:18;;;;;;;;;;;52.50;11.80;;;;;;5052368;28;74589;-71
2021/05/06 13:47:48;;;;;;;;;;;51.80;12.10;;;;;;5053462;28;75317;-70
2021/05/06 13:50:17;;;;;;;;;;;50.40;12.10;;;;;;5052098;28;75500;-71
2021/05/06 13:52:43;;;;;;;;;;;50.30;12.40;;;;;;5052710;28;77054;-70
2021/05/06 13:55:09;;;;;;;;;;;49.90;12.20;;;;;;5054023;28;74867;-72
2021/05/06 13:57:35;;;;;;;;;;;50.30;12.70;;;;;;5052199;28;77376;-71
2021/05/06 14:00:01;;;;;;;;;;;50.80;12.90;;;;;;5051896;28;77517;-68
2021/05/06 14:02:27;;;;;;;;;;;50.80;12.50;;;;;;5046027;27;75245;-65
2021/05/06 14:04:53;;;;;;;;;;;50.40;12.50;;;;;;5037594;28;75324;-68
2021/05/06 14:07:18;;;;;;;;;;;49.80;12.40;;;;;;5047451;28;77109;-68
2021/05/06 14:09:44;;;;;;;;;;;50.20;12.80;;;;;;5029713;28;76943;-67
2021/05/06 14:12:10;;;;;;;;;;;51.10;12.80;;;;;;5029076;28;75124;-68
2021/05/06 14:14:36;;;;;;;;;;;51.90;11.80;;;;;;5030534;28;77406;-67
2021/05/06 14:17:01;;;;;;;;;;;51.90;12.40;;;;;;5030576;28;77023;-68
2021/05/06 14:19:27;;;;;;;;;;;51.50;11.80;;;;;;5030649;28;76539;-68
2021/05/06 14:21:55;;;;;;;;;;;50.80;11.70;;;;;;5030953;28;75926;-68
2021/05/06 14:24:20;;;;;;;;;;;50.40;12.30;;;;;;5031026;28;77954;-67
2021/05/06 14:26:48;;;;;;;;;;;50.90;12.30;;;;;;5031091;28;77146;-67
2021/05/06 14:29:15;;;;;;;;;;;50.40;12.30;;;;;;5031042;28;74796;-67
2021/05/06 14:31:41;;;;;;;;;;;50.00;12.30;;;;;;5030968;28;75600;-67
2021/05/06 14:34:06;;;;;;;;;;;50.40;12.40;;;;;;5032360;28;75377;-67
2021/05/06 14:36:32;;;;;;;;;;;50.60;12.40;;;;;;5032509;28;75142;-67
2021/05/06 14:39:01;;;;;;;;;;;50.80;12.80;;;;;;5032562;28;74617;-69
2021/05/06 14:41:26;;;;;;;;;;;51.40;12.40;;;;;;5035037;27;75551;-67
2021/05/06 14:43:52;;;;;;;;;;;50.80;12.50;;;;;;5036387;27;75479;-67
2021/05/06 14:46:20;;;;;;;;;;;50.40;12.80;;;;;;5042020;27;75314;-69
2021/05/06 14:48:45;;;;;;;;;;;50.80;12.50;;;;;;5072428;27;76340;-69
2021/05/06 14:51:11;;;;;;;;;;;50.10;12.40;;;;;;5041477;27;74528;-69
2021/05/06 14:53:37;;;;;;;;;;;49.70;13.20;;;;;;5046903;28;75392;-69
2021/05/06 14:56:02;;;;;;;;;;;49.80;12.50;;;;;;5030435;28;77172;-70
2021/05/06 14:58:30;;;;;;;;;;;47.40;13.20;;;;;;5040861;28;75538;-68
2021/05/06 15:00:56;;;;;;;;;;;45.30;14.00;;;;;;5054560;28;75634;-68
2021/05/06 15:03:21;;;;;;;;;;;43.90;14.30;;;;;;5054782;27;74646;-68
2021/05/06 15:05:47;;;;;;;;;;;42.60;15.00;;;;;;5052714;28;76944;-68
2021/05/06 15:08:12;;;;;;;;;;;41.90;15.20;;;;;;5054352;28;75576;-69
2021/05/06 15:10:38;;;;;;;;;;;40.40;16.00;;;;;;5052837;28;76916;-69
2021/05/06 15:13:04;;;;;;;;;;;38.70;16.90;;;;;;5054479;28;74619;-69
2021/05/06 15:15:30;;;;;;;;;;;37.80;17.30;;;;;;5053183;27;76777;-69
2021/05/06 15:17:58;;;;;;;;;;;36.50;18.30;;;;;;5054480;28;74850;-69
2021/05/06 15:20:23;;;;;;;;;;;35.70;19.10;;;;;;5051755;27;76073;-70
2021/05/06 15:22:49;;;;;;;;;;;34.80;19.50;;;;;;5035698;28;74945;-69
2021/05/06 15:25:15;;;;;;;;;;;34.00;20.00;;;;;;5033719;28;75754;-70
2021/05/06 15:27:42;;;;;;;;;;;33.50;20.50;;;;;;5054110;28;75120;-70
2021/05/06 15:30:08;;;;;;;;;;;33.00;20.70;;;;;;5054083;28;75291;-68
2021/05/06 15:32:34;;;;;;;;;;;32.90;20.80;;;;;;5039956;28;76596;-69
2021/05/06 15:35:00;;;;;;;;;;;32.90;20.80;;;;;;5034103;28;74504;-70
2021/05/06 15:37:26;;;;;;;;;;;32.40;21.60;;;;;;5035297;28;75803;-70
2021/05/06 15:39:51;;;;;;;;;;;31.90;21.90;;;;;;5035510;28;75930;-70
2021/05/06 15:42:17;;;;;;;;;;;31.50;21.90;;;;;;5046367;28;77156;-70
2021/05/06 15:44:43;;;;;;;;;;;31.30;21.80;;;;;;5053898;28;77389;-70
2021/05/06 15:47:09;;;;;;;;;;;31.40;21.80;;;;;;5054829;28;77185;-70
2021/05/06 15:49:37;;;;;;;;;;;31.40;21.60;;;;;;5055394;27;75297;-70
2021/05/06 15:52:03;;;;;;;;;;;31.20;21.70;;;;;;5049608;27;74592;-70
2021/05/06 15:54:28;;;;;;;;;;;31.00;22.10;;;;;;5042928;27;74689;-70
2021/05/06 15:56:54;;;;;;;;;;;30.90;22.20;;;;;;5033741;28;75678;-71
2021/05/06 15:59:20;;;;;;;;;;;31.10;22.20;;;;;;5034995;28;74750;-70
2021/05/06 16:01:46;;;;;;;;;;;31.50;21.90;;;;;;5049591;28;75187;-69
2021/05/06 16:04:15;;;;;;;;;;;31.50;21.80;;;;;;5053688;28;77771;-68
2021/05/06 16:06:40;;;;;;;;;;;32.10;21.60;;;;;;5036109;28;75316;-69
2021/05/06 16:09:06;;;;;;;;;;;33.10;20.90;;;;;;5035042;28;75005;-72
2021/05/06 16:11:32;;;;;;;;;;;34.20;19.90;;;;;;5032963;28;75698;-68
2021/05/06 16:13:58;;;;;;;;;;;35.40;19.10;;;;;;5034895;28;74443;-69
2021/05/06 16:16:24;;;;;;;;;;;36.30;18.50;;;;;;5032936;28;78271;-70
2021/05/06 16:18:50;;;;;;;;;;;37.60;17.70;;;;;;5033594;28;77328;-70
2021/05/06 16:21:19;;;;;;;;;;;38.40;17.10;;;;;;5048001;28;75408;-69
2021/05/06 16:23:45;;;;;;;;;;;38.60;16.90;;;;;;5049433;28;75882;-69
2021/05/06 16:26:11;;;;;;;;;;;37.70;17.50;;;;;;5053307;27;75143;-70
2021/05/06 16:28:37;;;;;;;;;;;35.90;18.50;;;;;;5051528;28;76388;-69
2021/05/06 16:31:03;;;;;;;;;;;34.60;19.60;;;;;;5053440;27;75628;-70
2021/05/06 16:33:32;;;;;;;;;;;33.40;20.60;;;;;;5051534;28;76818;-70
2021/05/06 16:36:29;;;;;;;;;;;32.50;21.30;;;;;;5051603;28;75838;-70
2021/05/06 16:41:37;;;;;;;;;;;31.40;22.20;;;;;;5049083;28;75015;-69
2021/05/06 16:44:26;;;;;;;;;;;30.90;22.80;;;;;;5054425;28;75859;-69
2021/05/06 16:46:52;;;;;;;;;;;30.60;23.00;;;;;;5051957;27;75170;-69
2021/05/06 16:49:18;;;;;;;;;;;30.10;23.60;;;;;;5043194;28;74464;-70
2021/05/06 16:51:43;;;;;;;;;;;30.30;23.50;;;;;;5034128;28;75352;-70
2021/05/06 16:54:09;;;;;;;;;;;30.50;23.20;;;;;;5048318;28;75167;-70
2021/05/06 16:56:35;;;;;;;;;;;30.50;23.70;;;;;;5051071;28;77169;-69
2021/05/06 16:59:00;;;;;;;;;;;30.50;23.50;;;;;;5050665;28;75978;-70
2021/05/06 17:01:27;;;;;;;;;;;30.40;24.10;;;;;;5051242;28;76497;-70
2021/05/06 17:03:52;;;;;;;;;;;30.20;24.60;;;;;;5050890;28;76216;-69
2021/05/06 17:06:18;;;;;;;;;;;30.00;25.00;;;;;;5052347;28;75451;-69
2021/05/06 17:08:44;;;;;;;;;;;29.90;24.80;;;;;;5050624;28;77166;-69
2021/05/06 17:11:09;;;;;;;;;;;30.00;25.40;;;;;;5052576;28;74912;-69
2021/05/06 17:13:35;;;;;;;;;;;29.90;25.30;;;;;;5052212;28;74622;-71
2021/05/06 17:16:01;;;;;;;;;;;29.70;25.70;;;;;;5053329;27;74860;-69
2021/05/06 17:18:26;;;;;;;;;;;29.20;26.00;;;;;;5052187;27;75253;-69
2021/05/06 17:20:53;;;;;;;;;;;29.00;26.50;;;;;;5050624;27;75267;-69
2021/05/06 17:23:19;;;;;;;;;;;28.70;26.90;;;;;;5052020;28;75921;-70
2021/05/06 17:25:45;;;;;;;;;;;28.40;27.00;;;;;;5053540;27;74615;-70
2021/05/06 17:28:10;;;;;;;;;;;28.20;27.30;;;;;;5053982;27;74388;-69
2021/05/06 17:30:36;;;;;;;;;;;28.20;27.70;;;;;;5046318;27;74737;-68
2021/05/06 17:33:02;;;;;;;;;;;28.30;27.50;;;;;;5042471;28;76457;-69
2021/05/06 17:35:27;;;;;;;;;;;28.60;26.70;;;;;;5043231;27;77440;-69
2021/05/06 17:37:53;;;;;;;;;;;29.00;26.30;;;;;;5033268;28;75889;-69
2021/05/06 17:40:20;;;;;;;;;;;29.30;25.60;;;;;;5041951;28;75323;-68
2021/05/06 17:42:46;;;;;;;;;;;30.20;24.60;;;;;;5050237;28;75719;-67
2021/05/06 17:45:12;;;;;;;;;;;31.10;23.50;;;;;;5051996;28;75133;-62
2021/05/06 17:47:37;;;;;;;;;;;31.90;22.90;;;;;;5050374;28;77298;-65
2021/05/06 17:50:04;;;;;;;;;;;31.80;22.50;;;;;;5050279;28;77703;-64
2021/05/06 17:52:30;;;;;;;;;;;31.00;22.60;;;;;;5052900;28;75519;-68